Time;durP1;ratioP1;P1;durP2;ratioP2;P2;SDS_P1;SDS_P2;PMS_P1;PMS_P2;Temp;Humidity;BMP_temperature;BMP_pressure;BME280_temperature;BME280_humidity;BME280_pressure;Samples;Min_cycle;Max_cycle;Signal;HPM_P1;HPM_P2
2024/01/10 00:01:07;;;;;;;7.00;3.28;;;;;;;-3.47;58.51;103000.59;5075051;28;20025;-71
2024/01/10 00:03:32;;;;;;;6.60;3.28;;;;;;;-3.47;57.95;103004.06;5074614;28;20063;-71
2024/01/10 00:05:58;;;;;;;6.82;3.42;;;;;;;-3.55;58.82;102995.00;5078296;28;20019;-71
2024/01/10 00:08:23;;;;;;;9.57;4.45;;;;;;;-3.51;58.43;103006.41;5079397;28;20483;-71
2024/01/10 00:10:48;;;;;;;8.23;4.40;;;;;;;-3.55;59.64;103000.19;5075003;28;20055;-71
2024/01/10 00:13:14;;;;;;;10.25;4.72;;;;;;;-3.58;60.13;103000.03;5079136;28;20032;-71
2024/01/10 00:15:39;;;;;;;8.48;4.57;;;;;;;-3.60;59.43;102994.75;5082066;28;20487;-71
2024/01/10 00:18:04;;;;;;;7.10;4.35;;;;;;;-3.65;59.08;102991.06;5079347;28;20026;-72
2024/01/10 00:20:30;;;;;;;7.93;4.32;;;;;;;-3.65;59.98;102993.63;5082883;28;20069;-71
2024/01/10 00:22:55;;;;;;;6.82;3.47;;;;;;;-3.66;58.88;102996.16;5080311;28;20024;-67
2024/01/10 00:25:20;;;;;;;8.70;3.65;;;;;;;-3.68;59.18;102988.34;5078839;28;20024;-67
2024/01/10 00:27:45;;;;;;;6.07;3.08;;;;;;;-3.67;59.89;102986.63;5077971;28;20479;-68
2024/01/10 00:30:11;;;;;;;6.47;3.55;;;;;;;-3.67;59.69;102978.88;5076640;28;20039;-68
2024/01/10 00:32:36;;;;;;;7.68;3.90;;;;;;;-3.71;59.03;102971.78;5077811;28;20425;-67
2024/01/10 00:35:02;;;;;;;6.70;3.40;;;;;;;-3.71;60.57;102977.81;5076841;28;20043;-68
2024/01/10 00:37:28;;;;;;;5.07;3.20;;;;;;;-3.74;60.18;102977.66;5078478;28;20020;-67
2024/01/10 00:39:53;;;;;;;7.07;3.55;;;;;;;-3.77;60.04;102980.09;5077888;28;20066;-67
2024/01/10 00:42:18;;;;;;;6.53;3.15;;;;;;;-3.81;59.02;102975.56;5074902;28;20017;-68
2024/01/10 00:44:44;;;;;;;8.35;3.90;;;;;;;-3.82;58.74;102978.03;5077283;28;20122;-68
2024/01/10 00:47:11;;;;;;;6.03;3.42;;;;;;;-3.81;58.98;102975.56;5060630;28;20024;-67
2024/01/10 00:49:36;;;;;;;7.40;3.03;;;;;;;-3.83;60.60;102968.53;5083084;28;20387;-68
2024/01/10 00:52:01;;;;;;;6.72;3.63;;;;;;;-3.81;60.95;102972.97;5061650;28;20028;-68
2024/01/10 00:54:27;;;;;;;6.03;3.22;;;;;;;-3.83;61.07;102971.13;5077005;28;20028;-69
2024/01/10 00:56:52;;;;;;;5.25;3.33;;;;;;;-3.89;60.29;102961.34;5076618;28;20040;-68
2024/01/10 00:59:17;;;;;;;7.03;4.03;;;;;;;-3.90;59.47;102962.16;5080943;28;20035;-68
2024/01/10 01:01:43;;;;;;;5.68;3.15;;;;;;;-3.89;60.83;102963.94;5076030;28;20620;-68
2024/01/10 01:04:08;;;;;;;7.95;3.72;;;;;;;-3.90;61.07;102964.75;5073957;28;20479;-68
2024/01/10 01:06:33;;;;;;;7.50;3.53;;;;;;;-3.88;60.65;102965.69;5058855;28;20047;-68
2024/01/10 01:08:59;;;;;;;9.68;4.28;;;;;;;-3.91;61.81;102969.03;5079348;28;20020;-68
2024/01/10 01:11:24;;;;;;;5.78;4.07;;;;;;;-3.91;60.79;102968.16;5079499;28;20451;-68
2024/01/10 01:13:50;;;;;;;8.68;4.70;;;;;;;-3.92;61.14;102958.59;5074042;28;20456;-67
2024/01/10 01:16:15;;;;;;;8.88;4.43;;;;;;;-3.96;61.15;102962.72;5078762;28;20024;-69
2024/01/10 01:18:45;;;;;;;8.13;4.35;;;;;;;-3.98;61.36;102956.56;5077896;28;20499;-68
2024/01/10 01:21:10;;;;;;;9.40;4.40;;;;;;;-4.00;61.32;102960.78;5080226;28;20024;-67
2024/01/10 01:23:36;;;;;;;7.70;4.10;;;;;;;-4.01;61.37;102960.69;5079105;28;20078;-68
2024/01/10 01:26:01;;;;;;;10.00;4.55;;;;;;;-4.00;62.07;102965.06;5076451;28;20118;-67
2024/01/10 01:28:26;;;;;;;8.88;4.22;;;;;;;-4.01;61.38;102960.69;5076869;28;20471;-67
2024/01/10 01:30:51;;;;;;;10.85;3.83;;;;;;;-3.98;61.94;102960.84;5077822;28;20032;-68
2024/01/10 01:33:17;;;;;;;8.05;4.15;;;;;;;-4.02;61.20;102964.06;5080762;28;20134;-68
2024/01/10 01:35:42;;;;;;;6.20;3.63;;;;;;;-4.13;62.16;102964.41;5077735;28;20392;-67
2024/01/10 01:38:07;;;;;;;7.05;4.07;;;;;;;-4.12;62.70;102957.53;5083157;28;20023;-68
2024/01/10 01:40:33;;;;;;;6.25;3.30;;;;;;;-4.07;62.12;102965.53;5078296;28;20665;-68
2024/01/10 01:42:58;;;;;;;6.75;4.00;;;;;;;-4.14;61.61;102957.47;5078134;28;20709;-67
2024/01/10 01:45:24;;;;;;;6.28;3.55;;;;;;;-4.15;61.87;102959.94;5080075;28;20040;-67
2024/01/10 01:47:50;;;;;;;7.30;3.70;;;;;;;-4.17;62.38;102953.81;5078530;28;20020;-68
2024/01/10 01:50:16;;;;;;;5.95;3.63;;;;;;;-4.19;62.74;102953.75;5077988;28;20028;-68
2024/01/10 01:52:43;;;;;;;5.45;3.35;;;;;;;-4.21;63.37;102950.19;5082474;28;20020;-68
2024/01/10 01:55:10;;;;;;;5.75;3.35;;;;;;;-4.21;62.94;102957.91;5078842;28;20028;-67
2024/01/10 01:57:37;;;;;;;7.72;3.47;;;;;;;-4.17;63.39;102958.97;5079506;28;20483;-67
2024/01/10 02:00:04;;;;;;;9.23;3.33;;;;;;;-4.22;62.72;102956.16;5078244;28;20070;-68
2024/01/10 02:02:30;;;;;;;6.45;3.40;;;;;;;-4.24;62.39;102956.91;5078179;28;20038;-68
2024/01/10 02:04:56;;;;;;;7.50;3.13;;;;;;;-4.21;62.53;102954.47;5075503;28;20060;-67
2024/01/10 02:07:21;;;;;;;6.00;3.47;;;;;;;-4.20;62.91;102951.94;5057289;28;20451;-67
2024/01/10 02:09:47;;;;;;;7.30;3.08;;;;;;;-4.21;63.06;102949.28;5076348;28;20046;-68
2024/01/10 02:12:13;;;;;;;9.70;3.85;;;;;;;-4.26;62.59;102948.16;5085930;28;20028;-68
2024/01/10 02:14:38;;;;;;;6.60;3.72;;;;;;;-4.24;62.79;102950.03;5077443;28;20028;-67
2024/01/10 02:17:03;;;;;;;7.43;4.43;;;;;;;-4.25;62.15;102939.59;5078299;28;20383;-67
2024/01/10 02:19:30;;;;;;;7.45;3.25;;;;;;;-4.23;62.54;102950.91;5076309;28;20056;-67
2024/01/10 02:21:56;;;;;;;7.38;3.22;;;;;;;-4.24;63.09;102942.28;5079890;28;20028;-68
2024/01/10 02:24:21;;;;;;;8.57;3.55;;;;;;;-4.24;62.78;102949.16;5080067;28;20034;-67
2024/01/10 02:26:47;;;;;;;7.50;3.70;;;;;;;-4.22;63.14;102937.19;5072803;28;20111;-67
2024/01/10 02:29:13;;;;;;;11.10;4.05;;;;;;;-4.18;63.09;102939.13;5076949;28;20426;-67
2024/01/10 02:31:38;;;;;;;7.93;3.40;;;;;;;-4.16;62.84;102942.69;5076300;28;20026;-67
2024/01/10 02:34:03;;;;;;;7.03;3.80;;;;;;;-4.18;63.11;102942.59;5075225;28;20463;-67
2024/01/10 02:36:29;;;;;;;6.25;3.42;;;;;;;-4.22;63.84;102940.66;5072653;28;20395;-68
2024/01/10 02:38:54;;;;;;;6.25;3.38;;;;;;;-4.27;63.80;102944.69;5078126;28;20044;-67
2024/01/10 02:41:20;;;;;;;8.85;3.78;;;;;;;-4.28;63.74;102937.75;5057915;28;20020;-67
2024/01/10 02:43:46;;;;;;;7.10;3.75;;;;;;;-4.30;64.20;102936.75;5076025;28;20025;-67
2024/01/10 02:46:11;;;;;;;6.80;3.58;;;;;;;-4.27;63.33;102936.94;5076248;28;20031;-67
2024/01/10 02:48:36;;;;;;;9.85;4.30;;;;;;;-4.25;63.34;102929.28;5075844;28;20025;-67
2024/01/10 02:51:01;;;;;;;6.80;3.92;;;;;;;-4.26;63.96;102930.09;5077959;28;20381;-67
2024/01/10 02:53:27;;;;;;;10.02;3.95;;;;;;;-4.29;63.83;102925.66;5083517;28;20023;-69
2024/01/10 02:55:52;;;;;;;8.90;3.90;;;;;;;-4.23;63.49;102927.69;5078179;28;20027;-70
2024/01/10 02:58:18;;;;;;;6.50;3.70;;;;;;;-4.22;64.11;102922.59;5080387;28;20031;-69
2024/01/10 03:00:43;;;;;;;7.80;4.15;;;;;;;-4.25;63.42;102921.53;5082007;28;20115;-69
2024/01/10 03:03:08;;;;;;;5.78;3.67;;;;;;;-4.25;63.94;102914.66;5079529;28;20062;-69
2024/01/10 03:05:34;;;;;;;6.57;3.97;;;;;;;-4.24;62.84;102920.75;5079865;28;20028;-70
2024/01/10 03:08:00;;;;;;;10.32;4.20;;;;;;;-4.25;63.35;102917.25;5089619;28;20198;-69
2024/01/10 03:10:26;;;;;;;8.20;4.13;;;;;;;-4.24;63.44;102916.47;5063445;28;20055;-69
2024/01/10 03:12:51;;;;;;;7.95;3.67;;;;;;;-4.24;62.74;102916.47;5077917;28;20032;-69
2024/01/10 03:15:16;;;;;;;10.07;4.28;;;;;;;-4.20;62.91;102912.31;5078267;28;20107;-69
2024/01/10 03:17:42;;;;;;;6.43;4.07;;;;;;;-4.19;63.38;102912.44;5079550;28;20032;-69
2024/01/10 03:20:08;;;;;;;7.82;4.18;;;;;;;-4.23;63.11;102913.06;5086112;28;20479;-69
2024/01/10 03:22:34;;;;;;;7.50;3.65;;;;;;;-4.25;62.84;102906.03;5077888;28;20024;-69
2024/01/10 03:24:59;;;;;;;7.82;4.30;;;;;;;-4.25;62.97;102901.75;5081817;28;20055;-69
2024/01/10 03:27:24;;;;;;;7.65;3.75;;;;;;;-4.24;63.23;102905.25;5078740;28;20113;-69
2024/01/10 03:29:50;;;;;;;10.80;3.90;;;;;;;-4.31;63.21;102891.09;5074339;28;20604;-69
2024/01/10 03:32:15;;;;;;;5.97;3.35;;;;;;;-4.27;62.75;102898.22;5077801;28;20563;-69
2024/01/10 03:34:41;;;;;;;7.32;3.90;;;;;;;-4.24;62.65;102905.25;5078348;28;20074;-69
2024/01/10 03:37:07;;;;;;;7.30;3.78;;;;;;;-4.26;62.98;102899.97;5078215;28;20036;-69
2024/01/10 03:39:32;;;;;;;7.85;3.60;;;;;;;-4.30;63.04;102892.88;5083513;28;20028;-69
2024/01/10 03:41:57;;;;;;;7.07;4.50;;;;;;;-4.28;62.76;102890.41;5083257;28;20102;-69
2024/01/10 03:44:22;;;;;;;7.65;4.15;;;;;;;-4.26;62.46;102891.34;5078739;28;20032;-69
2024/01/10 03:46:48;;;;;;;7.65;3.95;;;;;;;-4.27;62.24;102890.47;5079784;28;20518;-69
2024/01/10 03:49:13;;;;;;;8.80;4.80;;;;;;;-4.30;62.81;102884.25;5084293;28;20059;-69
2024/01/10 03:51:40;;;;;;;7.70;4.38;;;;;;;-4.31;62.55;102882.47;5084335;28;20124;-68
2024/01/10 03:54:06;;;;;;;9.55;3.83;;;;;;;-4.31;62.41;102878.19;5078317;28;20025;-69
2024/01/10 03:56:31;;;;;;;10.27;4.45;;;;;;;-4.33;63.06;102872.06;5089803;28;20035;-69
2024/01/10 03:58:56;;;;;;;7.38;3.92;;;;;;;-4.32;62.50;102881.59;5090115;28;20356;-69
2024/01/10 04:01:23;;;;;;;8.18;3.75;;;;;;;-4.33;62.80;102871.19;5087994;28;20134;-69
2024/01/10 04:03:48;;;;;;;8.02;4.07;;;;;;;-4.34;62.98;102867.69;5087274;28;20484;-67
2024/01/10 04:06:14;;;;;;;8.40;3.83;;;;;;;-4.36;62.63;102870.19;5088062;28;20031;-67
2024/01/10 04:08:39;;;;;;;7.63;3.97;;;;;;;-4.33;62.85;102873.78;5087955;28;20028;-67
2024/01/10 04:11:04;;;;;;;7.47;4.30;;;;;;;-4.33;62.67;102864.31;5083643;28;20491;-66
2024/01/10 04:13:29;;;;;;;7.53;3.58;;;;;;;-4.32;62.84;102866.09;5074530;28;20024;-67
2024/01/10 04:15:55;;;;;;;8.60;4.07;;;;;;;-4.31;63.60;102867.88;5080906;28;20388;-66
2024/01/10 04:18:21;;;;;;;7.10;4.07;;;;;;;-4.29;63.08;102860.19;5084350;28;20048;-67
2024/01/10 04:20:47;;;;;;;9.63;4.60;;;;;;;-4.32;63.34;102865.22;5085686;28;20365;-67
2024/01/10 04:23:12;;;;;;;7.90;4.10;;;;;;;-4.36;62.85;102867.63;5080833;28;20118;-66
2024/01/10 04:25:38;;;;;;;6.20;3.63;;;;;;;-4.33;62.51;102863.44;5084976;28;20433;-67
2024/01/10 04:28:04;;;;;;;6.60;3.53;;;;;;;-4.32;63.27;102871.25;5081981;28;20039;-66
2024/01/10 04:30:29;;;;;;;6.43;3.70;;;;;;;-4.34;63.76;102864.22;5081947;28;20028;-67
2024/01/10 04:32:55;;;;;;;8.13;3.97;;;;;;;-4.37;63.62;102863.28;5076195;28;20021;-66
2024/01/10 04:35:20;;;;;;;7.00;3.45;;;;;;;-4.36;62.98;102865.03;5086895;28;20487;-67
2024/01/10 04:37:45;;;;;;;7.20;3.67;;;;;;;-4.37;63.81;102868.44;5080981;28;20032;-67
2024/01/10 04:40:11;;;;;;;6.75;3.50;;;;;;;-4.39;63.60;102870.03;5083674;28;20024;-67
2024/01/10 04:42:36;;;;;;;7.00;3.35;;;;;;;-4.41;63.58;102870.78;5080389;28;20024;-67
2024/01/10 04:45:02;;;;;;;7.32;4.10;;;;;;;-4.44;63.20;102866.31;5077447;28;20176;-67
2024/01/10 04:47:27;;;;;;;6.55;4.05;;;;;;;-4.44;63.55;102865.44;5078995;28;20032;-67
2024/01/10 04:49:52;;;;;;;6.00;3.55;;;;;;;-4.47;63.29;102862.72;5087235;28;20108;-67
2024/01/10 04:52:18;;;;;;;6.18;3.55;;;;;;;-4.48;63.55;102860.91;5085982;28;20319;-67
2024/01/10 04:54:43;;;;;;;7.43;3.30;;;;;;;-4.56;63.31;102863.09;5080305;28;20055;-67
2024/01/10 04:57:08;;;;;;;7.88;3.63;;;;;;;-4.60;64.03;102863.72;5081290;28;20099;-67
2024/01/10 04:59:34;;;;;;;8.30;3.60;;;;;;;-4.62;63.82;102850.75;5074854;28;20123;-67
2024/01/10 05:01:59;;;;;;;7.18;3.95;;;;;;;-4.66;63.48;102840.19;5081790;28;20054;-67
2024/01/10 05:04:25;;;;;;;7.30;3.63;;;;;;;-4.63;63.83;102845.50;5086054;28;20023;-67
2024/01/10 05:06:50;;;;;;;9.07;4.28;;;;;;;-4.61;63.78;102854.22;5080002;28;20464;-67
2024/01/10 05:09:16;;;;;;;8.15;3.50;;;;;;;-4.61;63.82;102851.63;5067513;28;20089;-67
2024/01/10 05:11:41;;;;;;;7.53;3.83;;;;;;;-4.58;64.06;102858.63;5080005;28;20108;-67
2024/01/10 05:14:06;;;;;;;6.70;3.53;;;;;;;-4.60;63.09;102857.69;5085495;28;20040;-69
2024/01/10 05:36:42;;;;;;;6.05;3.13;;;;;;;-4.62;63.74;102844.69;5080254;28;20054;-68
2024/01/10 05:39:08;;;;;;;6.28;3.63;;;;;;;-4.61;63.90;102856.81;5083205;28;20476;-69
2024/01/10 05:41:33;;;;;;;9.90;3.65;;;;;;;-4.63;63.98;102850.66;5081005;28;20020;-68
2024/01/10 05:43:58;;;;;;;8.07;4.00;;;;;;;-4.67;63.96;102859.91;5086420;28;20024;-68
2024/01/10 05:46:23;;;;;;;8.27;3.63;;;;;;;-4.66;63.73;102855.66;5086193;28;20028;-68
2024/01/10 05:48:49;;;;;;;9.25;4.05;;;;;;;-4.66;63.73;102853.09;5081292;28;20039;-69
2024/01/10 05:51:14;;;;;;;9.15;3.50;;;;;;;-4.68;63.90;102852.09;5082205;28;20039;-69
2024/01/10 05:53:39;;;;;;;6.07;3.72;;;;;;;-4.68;63.98;102855.56;5082071;28;20137;-69
2024/01/10 05:56:07;;;;;;;7.03;3.30;;;;;;;-4.69;64.38;102851.22;5087724;28;20463;-68
2024/01/10 05:58:32;;;;;;;5.85;3.53;;;;;;;-4.69;63.82;102863.22;5082529;28;20047;-69
2024/01/10 06:00:58;;;;;;;5.88;3.90;;;;;;;-4.74;64.37;102862.09;5085935;28;20109;-69
2024/01/10 06:03:24;;;;;;;7.30;3.63;;;;;;;-4.76;64.89;102859.41;5080504;28;20476;-69
2024/01/10 06:05:50;;;;;;;7.18;3.45;;;;;;;-4.78;64.80;102857.56;5078563;28;20027;-69
2024/01/10 06:08:15;;;;;;;8.68;3.60;;;;;;;-4.82;64.22;102847.88;5083244;28;20024;-68
2024/01/10 06:10:40;;;;;;;8.00;3.38;;;;;;;-4.82;65.44;102850.47;5081160;28;20036;-68
2024/01/10 06:13:06;;;;;;;5.88;3.83;;;;;;;-4.83;65.09;102857.31;5084747;28;20271;-68
2024/01/10 06:15:31;;;;;;;5.80;3.47;;;;;;;-4.87;64.60;102847.63;5082406;28;20403;-67
2024/01/10 06:17:56;;;;;;;10.77;4.85;;;;;;;-4.89;64.87;102846.66;5083682;28;20059;-68
2024/01/10 06:20:22;;;;;;;8.07;3.70;;;;;;;-4.93;64.43;102842.16;5083203;28;20050;-68
2024/01/10 06:22:47;;;;;;;5.57;3.47;;;;;;;-4.92;65.19;102839.63;5069389;28;20450;-69
2024/01/10 06:25:12;;;;;;;9.65;3.40;;;;;;;-4.96;65.74;102841.97;5087858;28;20027;-68
2024/01/10 06:27:39;;;;;;;6.07;3.50;;;;;;;-4.97;65.65;102829.88;5083565;28;20057;-68
2024/01/10 06:30:05;;;;;;;9.80;3.55;;;;;;;-4.97;65.74;102832.47;5086153;28;20032;-68
2024/01/10 06:32:30;;;;;;;8.15;3.92;;;;;;;-4.95;66.05;102838.56;5085052;28;20118;-68
2024/01/10 06:34:55;;;;;;;10.23;4.15;;;;;;;-5.01;65.07;102839.13;5082348;28;20137;-68
2024/01/10 06:37:20;;;;;;;9.75;4.00;;;;;;;-4.99;65.85;102840.13;5082991;28;20430;-68
2024/01/10 06:39:46;;;;;;;6.50;4.00;;;;;;;-4.97;66.09;102847.94;5086874;28;20032;-68
2024/01/10 06:42:11;;;;;;;9.38;4.20;;;;;;;-5.00;65.17;102840.91;5080014;28;20110;-68
2024/01/10 06:44:37;;;;;;;7.65;3.88;;;;;;;-4.99;65.48;102846.94;5083005;28;20032;-68
2024/01/10 06:47:03;;;;;;;7.45;3.33;;;;;;;-5.01;65.30;102843.41;5083494;28;20442;-68
2024/01/10 06:49:29;;;;;;;7.85;4.60;;;;;;;-5.03;65.33;102852.75;5081605;28;20051;-68
2024/01/10 06:51:54;;;;;;;9.73;4.63;;;;;;;-5.04;65.60;102856.13;5078440;28;20032;-68
2024/01/10 06:54:19;;;;;;;7.78;3.85;;;;;;;-5.02;65.96;102854.53;5085845;28;20066;-68
2024/01/10 06:56:45;;;;;;;7.32;3.70;;;;;;;-5.01;66.15;102844.28;5085515;28;20480;-68
2024/01/10 06:59:11;;;;;;;9.65;4.13;;;;;;;-5.03;65.72;102852.75;5084863;28;20039;-68
2024/01/10 07:01:36;;;;;;;7.88;4.10;;;;;;;-5.05;65.93;102859.50;5084295;28;20020;-68
2024/01/10 07:04:01;;;;;;;7.75;3.83;;;;;;;-5.06;66.08;102850.00;5082039;28;20560;-68
2024/01/10 07:06:27;;;;;;;10.18;4.28;;;;;;;-5.10;66.10;102853.19;5084270;28;20028;-68
2024/01/10 07:08:52;;;;;;;6.90;4.20;;;;;;;-5.13;66.02;102848.75;5077118;28;20028;-68
2024/01/10 07:11:19;;;;;;;8.45;4.22;;;;;;;-5.10;66.02;102860.94;5083155;28;20349;-68
2024/01/10 07:13:44;;;;;;;7.32;4.07;;;;;;;-5.14;66.35;102857.28;5085947;28;20036;-67
2024/01/10 07:16:11;;;;;;;7.80;3.60;;;;;;;-5.17;66.18;102873.50;5082892;28;20094;-67
2024/01/10 07:18:36;;;;;;;7.47;4.00;;;;;;;-5.21;66.41;102868.97;5082290;28;20047;-67
2024/01/10 07:21:02;;;;;;;8.43;4.05;;;;;;;-5.18;66.74;102855.34;5081069;28;20107;-67
2024/01/10 07:23:27;;;;;;;7.03;4.15;;;;;;;-5.21;66.50;102861.22;5086475;28;20020;-67
2024/01/10 07:25:52;;;;;;;10.20;4.60;;;;;;;-5.21;66.23;102863.81;5083617;28;20448;-67
2024/01/10 07:28:18;;;;;;;8.45;4.28;;;;;;;-5.22;66.73;102854.31;5080469;28;20340;-67
2024/01/10 07:30:44;;;;;;;8.35;3.92;;;;;;;-5.20;66.25;102844.06;5083126;28;20021;-67
2024/01/10 07:33:10;;;;;;;9.50;4.75;;;;;;;-5.23;66.57;102843.88;5083587;28;20033;-67
2024/01/10 07:35:36;;;;;;;7.85;3.70;;;;;;;-5.22;66.53;102846.56;5080621;28;20199;-67
2024/01/10 07:38:01;;;;;;;8.43;3.70;;;;;;;-5.20;66.83;102847.53;5077846;28;20475;-67
2024/01/10 07:40:26;;;;;;;6.53;3.72;;;;;;;-5.20;66.43;102844.94;5086112;28;20027;-67
2024/01/10 07:42:52;;;;;;;6.60;3.53;;;;;;;-5.20;66.50;102844.06;5069472;28;20032;-67
2024/01/10 07:45:17;;;;;;;7.70;4.25;;;;;;;-5.18;66.62;102845.03;5088260;28;20459;-67
2024/01/10 07:47:42;;;;;;;8.75;4.80;;;;;;;-5.17;66.82;102844.25;5087615;28;20023;-67
2024/01/10 07:50:09;;;;;;;8.23;4.25;;;;;;;-5.15;67.07;102845.22;5085880;28;20119;-67
2024/01/10 07:52:35;;;;;;;5.85;3.67;;;;;;;-5.15;66.74;102837.47;5088118;28;20039;-67
2024/01/10 07:55:01;;;;;;;8.30;3.70;;;;;;;-5.17;66.83;102828.78;5083422;28;20024;-65
2024/01/10 07:57:27;;;;;;;11.13;4.68;;;;;;;-5.13;66.88;102838.44;5083818;28;20032;-66
2024/01/10 07:59:55;;;;;;;8.60;4.30;;;;;;;-5.13;67.17;102844.50;5088742;28;20399;-66
2024/01/10 08:02:20;;;;;;;7.65;4.18;;;;;;;-5.09;66.72;102845.53;5086703;28;20039;-66
2024/01/10 08:04:45;;;;;;;9.27;4.20;;;;;;;-5.07;66.46;102851.69;5081095;28;20044;-65
2024/01/10 08:07:11;;;;;;;8.80;4.25;;;;;;;-5.02;66.01;102847.69;5085640;28;20030;-66
2024/01/10 08:09:37;;;;;;;10.57;4.25;;;;;;;-5.03;66.39;102845.91;5087250;28;20048;-65
2024/01/10 08:12:03;;;;;;;9.77;4.07;;;;;;;-4.99;66.12;102855.59;5082441;28;20028;-66
2024/01/10 08:14:28;;;;;;;10.02;4.55;;;;;;;-4.96;66.47;102850.59;5086917;28;20063;-66
2024/01/10 08:16:57;;;;;;;13.00;4.32;;;;;;;-4.93;66.64;102852.47;5083067;28;20134;-66
2024/01/10 08:19:22;;;;;;;11.70;4.28;;;;;;;-4.90;66.27;102853.53;5085177;28;20024;-66
2024/01/10 08:21:47;;;;;;;10.30;3.92;;;;;;;-4.83;66.01;102859.91;5085897;28;20506;-66
2024/01/10 08:24:12;;;;;;;10.38;4.55;;;;;;;-4.70;66.37;102851.13;5091284;28;20036;-66
2024/01/10 08:26:38;;;;;;;9.38;4.45;;;;;;;-4.57;65.77;102856.16;5083656;28;20024;-66
2024/01/10 08:29:03;;;;;;;9.93;4.35;;;;;;;-4.46;65.12;102861.91;5082091;28;20040;-65
2024/01/10 08:31:29;;;;;;;10.05;5.43;;;;;;;-4.32;65.21;102867.78;5090098;28;20112;-66
2024/01/10 08:33:54;;;;;;;10.15;5.45;;;;;;;-4.14;64.44;102867.06;5089530;28;20688;-65
2024/01/10 08:36:19;;;;;;;11.25;5.72;;;;;;;-3.85;63.79;102868.56;5086722;28;20054;-66
2024/01/10 08:38:45;;;;;;;10.45;4.63;;;;;;;-3.49;63.55;102860.91;5091131;28;20068;-65
2024/01/10 08:41:11;;;;;;;9.55;4.85;;;;;;;-3.32;62.31;102864.31;5087238;28;20399;-66
2024/01/10 08:43:37;;;;;;;10.27;4.60;;;;;;;-2.70;61.78;102850.91;5066407;28;20016;-66
2024/01/10 08:46:06;;;;;;;12.05;5.30;;;;;;;-2.27;59.27;102855.44;5085282;28;20103;-66
2024/01/10 08:48:31;;;;;;;11.57;4.95;;;;;;;-2.17;59.28;102856.75;5089417;28;20024;-66
2024/01/10 08:50:57;;;;;;;12.20;4.72;;;;;;;-1.59;58.76;102857.53;5085657;28;20092;-66
2024/01/10 08:53:22;;;;;;;9.15;4.88;;;;;;;-0.67;57.25;102855.16;5086908;28;20068;-66
2024/01/10 08:55:48;;;;;;;8.35;4.43;;;;;;;0.08;54.29;102851.00;5086186;28;20027;-66
2024/01/10 08:58:13;;;;;;;8.50;4.88;;;;;;;0.17;55.62;102858.25;5089326;28;20432;-67
2024/01/10 09:00:39;;;;;;;12.32;5.68;;;;;;;0.33;52.73;102862.28;5086893;28;20043;-66
2024/01/10 09:03:04;;;;;;;8.48;4.63;;;;;;;0.17;53.05;102858.25;5089049;28;20359;-67
2024/01/10 09:05:30;;;;;;;8.88;4.78;;;;;;;0.05;52.36;102863.91;5081591;28;20024;-67
2024/01/10 09:07:55;;;;;;;7.53;4.45;;;;;;;0.07;50.89;102864.84;5075551;28;20518;-67
2024/01/10 09:10:23;;;;;;;8.95;4.22;;;;;;;-0.07;53.01;102863.47;5057265;28;20404;-67
2024/01/10 09:12:49;;;;;;;11.25;5.15;;;;;;;-0.36;54.73;102865.00;5083357;28;20028;-67
2024/01/10 09:15:14;;;;;;;8.73;4.78;;;;;;;-0.14;53.85;102866.66;5087259;28;20103;-68
2024/01/10 09:17:43;;;;;;;10.27;4.68;;;;;;;-0.26;54.35;102870.59;5086145;28;20118;-67
2024/01/10 09:20:09;;;;;;;10.70;4.50;;;;;;;-0.09;53.71;102866.03;5087960;28;20020;-67
2024/01/10 09:22:35;;;;;;;11.15;5.22;;;;;;;0.43;52.82;102861.75;5063013;28;20065;-68
2024/01/10 09:25:03;;;;;;;12.75;5.65;;;;;;;0.75;50.81;102868.91;5087251;28;20020;-67
2024/01/10 09:27:30;;;;;;;9.05;5.30;;;;;;;1.12;50.07;102866.56;5086514;28;20031;-68
2024/01/10 09:29:55;;;;;;;11.88;5.38;;;;;;;1.95;47.75;102873.41;5082598;28;20035;-68
2024/01/10 09:32:22;;;;;;;9.13;5.53;;;;;;;2.27;46.09;102871.69;5087858;28;20047;-68
2024/01/10 09:34:47;;;;;;;9.90;5.00;;;;;;;2.94;46.20;102863.81;5089105;28;20024;-68
2024/01/10 09:37:12;;;;;;;10.20;4.60;;;;;;;4.24;43.05;102863.91;5081077;28;20038;-67
2024/01/10 09:39:38;;;;;;;9.75;5.97;;;;;;;5.10;40.19;102864.50;5078640;28;20279;-68
2024/01/10 09:42:04;;;;;;;7.55;4.35;;;;;;;6.04;40.05;102868.38;5083566;28;20391;-67
2024/01/10 09:44:29;;;;;;;8.00;4.88;;;;;;;6.90;39.09;102860.44;5084067;28;20375;-69
2024/01/10 09:46:55;;;;;;;11.48;5.40;;;;;;;7.52;35.62;102869.59;5088977;28;20028;-68
2024/01/10 09:49:25;;;;;;;8.75;5.05;;;;;;;7.76;35.62;102865.31;5081739;28;20039;-68
2024/01/10 09:51:53;;;;;;;10.30;5.28;;;;;;;8.16;33.99;102863.69;5083228;28;20495;-68
2024/01/10 09:54:21;;;;;;;11.40;5.30;;;;;;;8.09;33.40;102873.31;5080431;28;20387;-68
2024/01/10 09:56:47;;;;;;;10.23;5.30;;;;;;;8.72;33.75;102864.66;5079324;28;20159;-69
2024/01/10 09:59:12;;;;;;;9.20;4.90;;;;;;;9.20;32.49;102869.91;5076200;28;20119;-69
2024/01/10 10:01:39;;;;;;;12.18;5.55;;;;;;;9.91;32.39;102869.66;5083262;28;20420;-70
2024/01/10 10:04:05;;;;;;;12.18;6.40;;;;;;;10.59;31.51;102875.44;5084287;28;20403;-70
2024/01/10 10:06:30;;;;;;;8.45;5.43;;;;;;;10.86;31.67;102871.69;5081639;28;20024;-70
2024/01/10 10:08:56;;;;;;;10.00;5.47;;;;;;;11.05;29.99;102865.34;5088150;28;20024;-70
2024/01/10 10:11:21;;;;;;;11.45;5.78;;;;;;;10.78;29.21;102862.94;5080107;28;20077;-70
2024/01/10 10:13:46;;;;;;;9.50;5.90;;;;;;;10.48;28.59;102863.16;5084025;28;20464;-70
2024/01/10 10:16:15;;;;;;;11.73;5.88;;;;;;;10.48;31.31;102864.94;5083025;28;20960;-71
2024/01/10 10:18:44;;;;;;;11.25;5.43;;;;;;;10.82;32.04;102856.72;5079630;28;20028;-70
2024/01/10 10:21:12;;;;;;;12.70;6.65;;;;;;;11.43;31.01;102864.06;5080797;28;20483;-69
2024/01/10 10:23:42;;;;;;;16.73;7.18;;;;;;;12.02;30.11;102857.16;5064432;28;20026;-70
2024/01/10 10:26:21;;;;;;;12.65;6.75;;;;;;;12.47;28.70;102857.38;5079521;28;20085;-71
2024/01/10 10:28:47;;;;;;;11.52;6.60;;;;;;;11.94;28.43;102865.22;5077637;28;20028;-70
2024/01/10 10:31:14;;;;;;;11.35;6.55;;;;;;;11.80;29.21;102855.66;5080141;28;20108;-70
2024/01/10 10:33:40;;;;;;;10.57;5.60;;;;;;;12.18;28.22;102847.22;5076687;28;20032;-70
2024/01/10 10:36:06;;;;;;;10.98;6.80;;;;;;;11.71;27.59;102846.06;5080666;28;20025;-70
2024/01/10 10:38:31;;;;;;;12.85;6.82;;;;;;;11.53;27.75;102846.28;5076150;28;20033;-70
2024/01/10 10:40:59;;;;;;;12.85;6.85;;;;;;;11.71;28.43;102835.47;5078256;28;20057;-70
2024/01/10 10:43:25;;;;;;;12.07;6.07;;;;;;;12.61;28.33;102830.63;5077198;28;20024;-70
2024/01/10 10:45:51;;;;;;;12.43;6.97;;;;;;;12.89;26.17;102836.34;5076781;28;20040;-70
2024/01/10 10:48:20;;;;;;;11.95;6.70;;;;;;;12.87;26.52;102839.03;5080298;28;20111;-70
2024/01/10 10:51:22;;;;;;;12.98;7.35;;;;;;;13.31;29.06;102836.47;5084170;28;20034;-70
2024/01/10 10:53:48;;;;;;;11.50;6.70;;;;;;;13.57;24.15;102841.25;5076330;28;20093;-70
2024/01/10 10:56:13;;;;;;;11.82;6.75;;;;;;;13.48;25.20;102837.00;5085372;28;20028;-70
2024/01/10 10:58:40;;;;;;;12.43;6.70;;;;;;;13.58;26.02;102837.69;5063766;28;20491;-70
2024/01/10 11:01:07;;;;;;;10.25;6.05;;;;;;;14.25;25.41;102839.72;5079967;28;20027;-70
2024/01/10 11:03:34;;;;;;;12.82;8.02;;;;;;;14.75;26.16;102826.13;5086225;28;20116;-70
2024/01/10 11:06:01;;;;;;;11.13;6.35;;;;;;;15.41;25.14;102827.84;5082059;28;20039;-70
2024/01/10 11:08:28;;;;;;;14.52;7.72;;;;;;;16.00;23.61;102835.91;5083138;28;20067;-70
2024/01/10 11:10:56;;;;;;;10.23;5.93;;;;;;;15.80;23.22;102836.50;5087161;28;20083;-70
2024/01/10 11:13:32;;;;;;;11.30;6.80;;;;;;;15.55;23.84;102835.47;5081409;28;20032;-72
2024/01/10 11:16:12;;;;;;;12.32;6.35;;;;;;;16.11;25.41;102834.69;5082694;28;20479;-70
2024/01/10 11:18:47;;;;;;;10.95;7.03;;;;;;;16.71;23.60;102826.47;5082713;28;20024;-70
2024/01/10 11:21:40;;;;;;;11.20;6.68;;;;;;;16.76;24.86;102824.53;5089383;28;20595;-70
2024/01/10 11:24:06;;;;;;;10.25;6.93;;;;;;;16.51;21.24;102813.81;5087032;28;20032;-70
2024/01/10 11:26:33;;;;;;;10.82;6.80;;;;;;;16.03;22.85;102816.25;5072899;28;20101;-70
2024/01/10 11:29:00;;;;;;;11.82;6.63;;;;;;;15.62;21.56;102818.38;5090227;28;20036;-70
2024/01/10 11:31:30;;;;;;;12.88;7.50;;;;;;;15.43;23.58;102819.81;5092596;28;20028;-69
2024/01/10 11:34:00;;;;;;;12.90;7.28;;;;;;;15.84;23.59;102815.06;5092311;28;20038;-69
2024/01/10 11:36:26;;;;;;;12.25;6.82;;;;;;;15.90;23.05;102798.88;5091522;28;20023;-70
2024/01/10 11:38:53;;;;;;;11.60;6.97;;;;;;;15.88;22.04;102801.59;5086655;28;20560;-70